Pagrindinis puslapis
METAR-TAF:

METAR-TAF

Oro uostai :

Mesina, Italija

platuma: 38-12N, ilguma: 015-33E, Aukštis: 59 m

Dabartinis oras

Ataskaita buvo paskelbta 30 minutes, ne 18:55 UTC
Vėjas 3 kt iš Šiaurės Rytų
Temperatūra 26°C
Drėgmė 79%
Slėgis 1014 hPa
Matomumas 10 km arba daugiau
Išsisklaidę debesys ne aukštis 2500 ft

METAR: LICF 191855Z 04003KT 9999 SCT025 26/22 Q1014 RMK BKN SCT080 BKN200 QUK / QUL / VIS MAR 12 KM MON INVIS NC VIS MIN 9999

Laikas: 21:25 (19:25 UTC)


TAF: trūkstamas

Orai ataskaitas ir orų prognozės (METAR, TAF).

turimą stotys yra geltonos ir raudonos taškus žemėlapyje.

Perkelti pele per norėdami pamatyti stoties vardą.

Tada spustelėkite, norėdami matyti oro stebėjimo ir prognozės.

Norėdami pakeisti žemėlapį: spustelėkite ant žalios mygtukų su juodo kryžiaus žemyn,; žalią mygtuką su brūkšneliu, jei norite nutolinti; arba žalių rodyklių gretimoms žemėlapius.


METAR-TAF: